sensor_id;sensor_type;location;lat;lon;timestamp;pressure;altitude;pressure_sealevel;temperature;humidity
72798;BME280;61084;55.816;37.036;2024-01-30T00:01:39;100619.28;;;1.24;69.86
72798;BME280;61084;55.816;37.036;2024-01-30T00:04:04;100621.84;;;1.21;69.85
72798;BME280;61084;55.816;37.036;2024-01-30T00:06:30;100618.38;;;1.20;70.22
72798;BME280;61084;55.816;37.036;2024-01-30T00:08:57;100629.59;;;1.19;69.90
72798;BME280;61084;55.816;37.036;2024-01-30T00:11:23;100617.50;;;1.20;70.29
72798;BME280;61084;55.816;37.036;2024-01-30T00:13:52;100614.09;;;1.21;70.38
72798;BME280;61084;55.816;37.036;2024-01-30T00:16:22;100606.34;;;1.21;70.03
72798;BME280;61084;55.816;37.036;2024-01-30T00:18:53;100610.63;;;1.20;70.31
72798;BME280;61084;55.816;37.036;2024-01-30T00:21:20;100611.50;;;1.22;70.26
72798;BME280;61084;55.816;37.036;2024-01-30T00:23:46;100621.00;;;1.23;70.00
72798;BME280;61084;55.816;37.036;2024-01-30T00:26:13;100613.25;;;1.23;69.82
72798;BME280;61084;55.816;37.036;2024-01-30T00:28:41;100611.53;;;1.25;69.98
72798;BME280;61084;55.816;37.036;2024-01-30T00:31:07;100613.25;;;1.28;69.87
72798;BME280;61084;55.816;37.036;2024-01-30T00:33:33;100603.75;;;1.28;70.09
72798;BME280;61084;55.816;37.036;2024-01-30T00:35:59;100614.09;;;1.27;70.04
72798;BME280;61084;55.816;37.036;2024-01-30T00:38:25;100608.06;;;1.26;69.91
72798;BME280;61084;55.816;37.036;2024-01-30T00:40:51;100611.50;;;1.27;70.25
72798;BME280;61084;55.816;37.036;2024-01-30T00:43:17;100608.06;;;1.26;70.29
72798;BME280;61084;55.816;37.036;2024-01-30T00:45:43;100604.63;;;1.23;70.33
72798;BME280;61084;55.816;37.036;2024-01-30T00:48:09;100605.47;;;1.26;69.93
72798;BME280;61084;55.816;37.036;2024-01-30T00:50:35;100599.47;;;1.26;70.42
72798;BME280;61084;55.816;37.036;2024-01-30T00:53:01;100604.63;;;1.26;70.28
72798;BME280;61084;55.816;37.036;2024-01-30T00:55:27;100608.94;;;1.28;70.09
72798;BME280;61084;55.816;37.036;2024-01-30T00:57:53;100605.50;;;1.29;70.03
72798;BME280;61084;55.816;37.036;2024-01-30T01:00:19;100607.22;;;1.29;70.16
72798;BME280;61084;55.816;37.036;2024-01-30T01:02:46;100607.22;;;1.27;69.90
72798;BME280;61084;55.816;37.036;2024-01-30T01:05:13;100605.50;;;1.29;69.98
72798;BME280;61084;55.816;37.036;2024-01-30T01:07:39;100603.81;;;1.34;70.19
72798;BME280;61084;55.816;37.036;2024-01-30T01:10:06;100594.28;;;1.35;69.82
72798;BME280;61084;55.816;37.036;2024-01-30T01:12:32;100604.66;;;1.36;70.36
72798;BME280;61084;55.816;37.036;2024-01-30T01:14:58;100598.66;;;1.39;70.12
72798;BME280;61084;55.816;37.036;2024-01-30T01:17:24;100604.69;;;1.41;70.00
72798;BME280;61084;55.816;37.036;2024-01-30T01:19:50;100595.19;;;1.40;70.08
72798;BME280;61084;55.816;37.036;2024-01-30T01:22:16;100593.44;;;1.37;69.93
72798;BME280;61084;55.816;37.036;2024-01-30T01:24:44;100588.25;;;1.33;70.48
72798;BME280;61084;55.816;37.036;2024-01-30T01:27:10;100588.28;;;1.36;70.19
72798;BME280;61084;55.816;37.036;2024-01-30T01:29:36;100581.38;;;1.38;70.43
72798;BME280;61084;55.816;37.036;2024-01-30T01:32:02;100578.81;;;1.41;70.51
72798;BME280;61084;55.816;37.036;2024-01-30T01:34:28;100572.78;;;1.42;69.98
72798;BME280;61084;55.816;37.036;2024-01-30T01:36:54;100580.56;;;1.43;70.18
72798;BME280;61084;55.816;37.036;2024-01-30T01:39:22;100571.06;;;1.41;70.46
72798;BME280;61084;55.816;37.036;2024-01-30T01:41:49;100575.34;;;1.42;70.28
72798;BME280;61084;55.816;37.036;2024-01-30T01:44:15;100577.09;;;1.44;70.01
72798;BME280;61084;55.816;37.036;2024-01-30T01:46:41;100564.19;;;1.47;70.46
72798;BME280;61084;55.816;37.036;2024-01-30T01:49:07;100565.03;;;1.45;70.08
72798;BME280;61084;55.816;37.036;2024-01-30T01:51:35;100559.84;;;1.46;70.60
72798;BME280;61084;55.816;37.036;2024-01-30T01:54:04;100575.38;;;1.48;69.89
72798;BME280;61084;55.816;37.036;2024-01-30T01:56:31;100577.97;;;1.46;70.37
72798;BME280;61084;55.816;37.036;2024-01-30T01:59:00;100566.78;;;1.47;70.40
72798;BME280;61084;55.816;37.036;2024-01-30T02:01:31;100571.06;;;1.45;69.89
72798;BME280;61084;55.816;37.036;2024-01-30T02:03:59;100577.09;;;1.44;70.31
72798;BME280;61084;55.816;37.036;2024-01-30T02:06:25;100581.41;;;1.44;70.31
72798;BME280;61084;55.816;37.036;2024-01-30T02:08:51;100564.16;;;1.46;70.34
72798;BME280;61084;55.816;37.036;2024-01-30T02:11:18;100575.38;;;1.45;69.99
72798;BME280;61084;55.816;37.036;2024-01-30T02:13:45;100566.75;;;1.44;69.98
72798;BME280;61084;55.816;37.036;2024-01-30T02:16:11;100564.16;;;1.43;70.12
72798;BME280;61084;55.816;37.036;2024-01-30T02:18:38;100565.88;;;1.42;70.79
72798;BME280;61084;55.816;37.036;2024-01-30T02:21:17;100565.03;;;1.43;70.48
72798;BME280;61084;55.816;37.036;2024-01-30T02:23:46;100565.03;;;1.43;70.49
72798;BME280;61084;55.816;37.036;2024-01-30T02:26:13;100564.16;;;1.43;70.38
72798;BME280;61084;55.816;37.036;2024-01-30T02:28:39;100565.03;;;1.43;70.74
72798;BME280;61084;55.816;37.036;2024-01-30T02:31:05;100572.78;;;1.45;70.38
72798;BME280;61084;55.816;37.036;2024-01-30T02:33:31;100561.59;;;1.47;70.26
72798;BME280;61084;55.816;37.036;2024-01-30T02:35:57;100565.91;;;1.50;70.46
72798;BME280;61084;55.816;37.036;2024-01-30T02:38:24;100569.34;;;1.50;70.47
72798;BME280;61084;55.816;37.036;2024-01-30T02:40:50;100571.94;;;1.49;70.26
72798;BME280;61084;55.816;37.036;2024-01-30T02:43:16;100571.09;;;1.50;70.42
72798;BME280;61084;55.816;37.036;2024-01-30T02:45:43;100569.38;;;1.53;70.63
72798;BME280;61084;55.816;37.036;2024-01-30T02:48:09;100562.47;;;1.54;70.48
72798;BME280;61084;55.816;37.036;2024-01-30T02:50:35;100575.38;;;1.52;70.46
72798;BME280;61084;55.816;37.036;2024-01-30T02:53:01;100572.81;;;1.51;70.62
72798;BME280;61084;55.816;37.036;2024-01-30T02:55:27;100575.41;;;1.54;70.49
72798;BME280;61084;55.816;37.036;2024-01-30T02:57:53;100575.38;;;1.52;70.49
72798;BME280;61084;55.816;37.036;2024-01-30T03:00:19;100584.03;;;1.56;70.57
72798;BME280;61084;55.816;37.036;2024-01-30T03:02:45;100589.22;;;1.56;70.74
72798;BME280;61084;55.816;37.036;2024-01-30T03:05:11;100581.44;;;1.58;70.79
72798;BME280;61084;55.816;37.036;2024-01-30T03:07:38;100581.47;;;1.61;70.45
72798;BME280;61084;55.816;37.036;2024-01-30T03:10:05;100584.88;;;1.61;70.78
72798;BME280;61084;55.816;37.036;2024-01-30T03:12:32;100582.31;;;1.63;70.54
72798;BME280;61084;55.816;37.036;2024-01-30T03:14:59;100573.69;;;1.64;70.88
72798;BME280;61084;55.816;37.036;2024-01-30T03:17:24;100581.44;;;1.68;70.60
72798;BME280;61084;55.816;37.036;2024-01-30T03:19:51;100579.75;;;1.69;70.46
72798;BME280;61084;55.816;37.036;2024-01-30T03:22:17;100579.72;;;1.70;70.42
72798;BME280;61084;55.816;37.036;2024-01-30T03:24:43;100574.56;;;1.72;70.80
72798;BME280;61084;55.816;37.036;2024-01-30T03:27:09;100584.94;;;1.72;70.37
72798;BME280;61084;55.816;37.036;2024-01-30T03:29:35;100575.44;;;1.74;70.23
72798;BME280;61084;55.816;37.036;2024-01-30T03:32:02;100579.75;;;1.75;70.47
72798;BME280;61084;55.816;37.036;2024-01-30T03:34:29;100578.91;;;1.76;70.29
72798;BME280;61084;55.816;37.036;2024-01-30T03:36:55;100592.69;;;1.73;70.52
72798;BME280;61084;55.816;37.036;2024-01-30T03:39:21;100588.38;;;1.74;70.48
72798;BME280;61084;55.816;37.036;2024-01-30T03:41:47;100599.56;;;1.73;70.64
72798;BME280;61084;55.816;37.036;2024-01-30T03:44:13;100596.13;;;1.69;70.71
72798;BME280;61084;55.816;37.036;2024-01-30T03:46:39;100600.44;;;1.69;71.08
72798;BME280;61084;55.816;37.036;2024-01-30T03:49:05;100604.75;;;1.70;70.58
72798;BME280;61084;55.816;37.036;2024-01-30T03:51:31;100603.03;;;1.72;70.59
72798;BME280;61084;55.816;37.036;2024-01-30T03:53:57;100604.75;;;1.74;70.82
72798;BME280;61084;55.816;37.036;2024-01-30T03:56:23;100614.25;;;1.75;70.89
72798;BME280;61084;55.816;37.036;2024-01-30T03:58:51;100608.22;;;1.75;70.96
72798;BME280;61084;55.816;37.036;2024-01-30T04:01:17;100609.94;;;1.76;71.07
72798;BME280;61084;55.816;37.036;2024-01-30T04:03:43;100602.19;;;1.77;71.04
72798;BME280;61084;55.816;37.036;2024-01-30T04:06:10;100603.91;;;1.80;70.65
72798;BME280;61084;55.816;37.036;2024-01-30T04:08:37;100606.50;;;1.84;70.89
72798;BME280;61084;55.816;37.036;2024-01-30T04:11:04;100604.75;;;1.89;70.63
72798;BME280;61084;55.816;37.036;2024-01-30T04:13:32;100603.06;;;1.93;70.55
72798;BME280;61084;55.816;37.036;2024-01-30T04:16:02;100604.75;;;1.89;71.13
72798;BME280;61084;55.816;37.036;2024-01-30T04:18:29;100603.91;;;1.87;70.91
72798;BME280;61084;55.816;37.036;2024-01-30T04:20:56;100602.19;;;1.88;70.51
72798;BME280;61084;55.816;37.036;2024-01-30T04:23:22;100610.81;;;1.88;70.99
72798;BME280;61084;55.816;37.036;2024-01-30T04:25:48;100598.72;;;1.92;70.98
72798;BME280;61084;55.816;37.036;2024-01-30T04:28:14;100600.47;;;1.94;70.52
72798;BME280;61084;55.816;37.036;2024-01-30T04:30:40;100603.06;;;1.96;70.50
72798;BME280;61084;55.816;37.036;2024-01-30T04:33:06;100597.03;;;1.98;70.47
72798;BME280;61084;55.816;37.036;2024-01-30T04:35:32;100599.63;;;2.00;70.93
72798;BME280;61084;55.816;37.036;2024-01-30T04:37:58;100606.53;;;1.98;70.59
72798;BME280;61084;55.816;37.036;2024-01-30T04:40:24;100603.94;;;1.98;70.66
72798;BME280;61084;55.816;37.036;2024-01-30T04:42:50;100601.34;;;1.96;70.69
72798;BME280;61084;55.816;37.036;2024-01-30T04:45:16;100599.63;;;1.97;70.63
72798;BME280;61084;55.816;37.036;2024-01-30T04:47:42;100587.53;;;2.02;70.73
72798;BME280;61084;55.816;37.036;2024-01-30T04:50:09;100595.31;;;2.03;70.35
72798;BME280;61084;55.816;37.036;2024-01-30T04:52:36;100592.72;;;2.03;70.30
72798;BME280;61084;55.816;37.036;2024-01-30T04:55:02;100594.44;;;2.01;70.65
72798;BME280;61084;55.816;37.036;2024-01-30T04:57:31;100593.56;;;2.02;70.58
72798;BME280;61084;55.816;37.036;2024-01-30T04:59:59;100591.84;;;2.01;70.39
72798;BME280;61084;55.816;37.036;2024-01-30T05:02:26;100597.03;;;2.03;70.52
72798;BME280;61084;55.816;37.036;2024-01-30T05:04:53;100599.63;;;2.04;70.61
72798;BME280;61084;55.816;37.036;2024-01-30T05:07:19;100593.56;;;2.02;70.19
72798;BME280;61084;55.816;37.036;2024-01-30T05:09:45;100597.88;;;2.05;70.53
72798;BME280;61084;55.816;37.036;2024-01-30T05:12:11;100605.66;;;2.08;70.54
72798;BME280;61084;55.816;37.036;2024-01-30T05:14:37;100597.91;;;2.08;70.75
72798;BME280;61084;55.816;37.036;2024-01-30T05:17:02;100596.19;;;2.08;70.38
72798;BME280;61084;55.816;37.036;2024-01-30T05:19:29;100600.50;;;2.06;70.76
72798;BME280;61084;55.816;37.036;2024-01-30T05:21:54;100601.34;;;2.08;70.85
72798;BME280;61084;55.816;37.036;2024-01-30T05:24:20;100604.78;;;2.07;71.09
72798;BME280;61084;55.816;37.036;2024-01-30T05:26:46;100601.34;;;2.08;70.76
72798;BME280;61084;55.816;37.036;2024-01-30T05:29:14;100606.53;;;2.11;70.72
72798;BME280;61084;55.816;37.036;2024-01-30T05:31:40;100615.16;;;2.15;70.74
72798;BME280;61084;55.816;37.036;2024-01-30T05:34:06;100606.53;;;2.16;70.40
72798;BME280;61084;55.816;37.036;2024-01-30T05:36:32;100616.03;;;2.14;70.28
72798;BME280;61084;55.816;37.036;2024-01-30T05:38:58;100603.94;;;2.13;70.69
72798;BME280;61084;55.816;37.036;2024-01-30T05:41:24;100600.50;;;2.12;70.82
72798;BME280;61084;55.816;37.036;2024-01-30T05:43:53;100609.13;;;2.16;70.82
72798;BME280;61084;55.816;37.036;2024-01-30T05:46:19;100615.16;;;2.15;70.41
72798;BME280;61084;55.816;37.036;2024-01-30T05:48:45;100618.63;;;2.17;70.71
72798;BME280;61084;55.816;37.036;2024-01-30T05:51:11;100620.34;;;2.18;70.57
72798;BME280;61084;55.816;37.036;2024-01-30T05:53:37;100617.75;;;2.22;70.83
72798;BME280;61084;55.816;37.036;2024-01-30T05:56:04;100621.22;;;2.26;70.55
72798;BME280;61084;55.816;37.036;2024-01-30T05:58:30;100626.38;;;2.24;70.77
72798;BME280;61084;55.816;37.036;2024-01-30T06:00:59;100626.38;;;2.24;70.25
72798;BME280;61084;55.816;37.036;2024-01-30T06:03:25;100622.06;;;2.25;70.78
72798;BME280;61084;55.816;37.036;2024-01-30T06:05:51;100629.84;;;2.23;70.82
72798;BME280;61084;55.816;37.036;2024-01-30T06:08:17;100635.00;;;2.22;70.46
72798;BME280;61084;55.816;37.036;2024-01-30T06:10:43;100634.16;;;2.24;70.30
72798;BME280;61084;55.816;37.036;2024-01-30T06:13:09;100632.41;;;2.26;70.71
72798;BME280;61084;55.816;37.036;2024-01-30T06:15:35;100642.78;;;2.31;70.42
72798;BME280;61084;55.816;37.036;2024-01-30T06:18:01;100635.88;;;2.32;70.57
72798;BME280;61084;55.816;37.036;2024-01-30T06:20:27;100645.38;;;2.37;70.74
72798;BME280;61084;55.816;37.036;2024-01-30T06:22:53;100649.69;;;2.40;70.52
72798;BME280;61084;55.816;37.036;2024-01-30T06:25:18;100645.38;;;2.40;70.38
72798;BME280;61084;55.816;37.036;2024-01-30T06:27:46;100649.69;;;2.38;70.65
72798;BME280;61084;55.816;37.036;2024-01-30T06:30:12;100644.50;;;2.34;70.65
72798;BME280;61084;55.816;37.036;2024-01-30T06:32:38;100646.25;;;2.30;70.69
72798;BME280;61084;55.816;37.036;2024-01-30T06:35:05;100648.81;;;2.33;70.15
72798;BME280;61084;55.816;37.036;2024-01-30T06:37:31;100650.56;;;2.33;70.69
72798;BME280;61084;55.816;37.036;2024-01-30T06:39:57;100652.28;;;2.38;70.33
72798;BME280;61084;55.816;37.036;2024-01-30T06:42:23;100652.28;;;2.38;70.49
72798;BME280;61084;55.816;37.036;2024-01-30T06:44:49;100651.41;;;2.42;70.50
72798;BME280;61084;55.816;37.036;2024-01-30T06:47:15;100647.13;;;2.47;70.25
72798;BME280;61084;55.816;37.036;2024-01-30T06:49:41;100654.00;;;2.51;70.52
72798;BME280;61084;55.816;37.036;2024-01-30T06:52:09;100654.88;;;2.55;70.43
72798;BME280;61084;55.816;37.036;2024-01-30T06:54:36;100660.91;;;2.55;70.39
72798;BME280;61084;55.816;37.036;2024-01-30T06:57:02;100663.50;;;2.55;70.49
72798;BME280;61084;55.816;37.036;2024-01-30T06:59:29;100678.19;;;2.59;70.30
72798;BME280;61084;55.816;37.036;2024-01-30T07:01:54;100674.72;;;2.63;70.17
72798;BME280;61084;55.816;37.036;2024-01-30T07:04:20;100668.69;;;2.61;70.35
72798;BME280;61084;55.816;37.036;2024-01-30T07:06:46;100673.00;;;2.64;70.22
72798;BME280;61084;55.816;37.036;2024-01-30T07:09:12;100661.78;;;2.66;70.39
72798;BME280;61084;55.816;37.036;2024-01-30T07:11:39;100664.34;;;2.68;70.07
72798;BME280;61084;55.816;37.036;2024-01-30T07:14:05;100663.53;;;2.72;69.81
72798;BME280;61084;55.816;37.036;2024-01-30T07:16:31;100668.69;;;2.73;70.22
72798;BME280;61084;55.816;37.036;2024-01-30T07:18:57;100667.81;;;2.79;69.96
72798;BME280;61084;55.816;37.036;2024-01-30T07:21:23;100664.34;;;2.77;69.79
72798;BME280;61084;55.816;37.036;2024-01-30T07:23:54;100674.72;;;2.75;70.07
72798;BME280;61084;55.816;37.036;2024-01-30T07:26:21;100676.47;;;2.75;69.75
72798;BME280;61084;55.816;37.036;2024-01-30T07:28:47;100675.59;;;2.76;70.14
72798;BME280;61084;55.816;37.036;2024-01-30T07:31:13;100673.84;;;2.76;70.00
72798;BME280;61084;55.816;37.036;2024-01-30T07:33:40;100679.06;;;2.78;69.70
72798;BME280;61084;55.816;37.036;2024-01-30T07:36:06;100685.97;;;2.80;69.87
72798;BME280;61084;55.816;37.036;2024-01-30T07:38:32;100688.56;;;2.82;70.13
72798;BME280;61084;55.816;37.036;2024-01-30T07:40:58;100675.59;;;2.80;70.22
72798;BME280;61084;55.816;37.036;2024-01-30T07:43:24;100686.81;;;2.79;70.10
72798;BME280;61084;55.816;37.036;2024-01-30T07:45:50;100698.94;;;2.80;70.13
72798;BME280;61084;55.816;37.036;2024-01-30T07:48:16;100715.31;;;2.81;69.88
72798;BME280;61084;55.816;37.036;2024-01-30T07:50:42;100694.59;;;2.82;69.99
72798;BME280;61084;55.816;37.036;2024-01-30T07:53:08;100694.59;;;2.87;69.87
72798;BME280;61084;55.816;37.036;2024-01-30T07:55:34;100703.25;;;2.89;69.96
72798;BME280;61084;55.816;37.036;2024-01-30T07:58:08;100706.69;;;2.95;69.70
72798;BME280;61084;55.816;37.036;2024-01-30T08:00:34;100689.38;;;2.96;70.04
72798;BME280;61084;55.816;37.036;2024-01-30T08:03:00;100700.63;;;2.95;69.88
72798;BME280;61084;55.816;37.036;2024-01-30T08:05:26;100698.91;;;2.94;69.87
72798;BME280;61084;55.816;37.036;2024-01-30T08:07:52;100695.44;;;2.98;69.54
72798;BME280;61084;55.816;37.036;2024-01-30T08:10:18;100703.22;;;2.99;69.54
72798;BME280;61084;55.816;37.036;2024-01-30T08:12:44;100698.88;;;3.04;69.49
72798;BME280;61084;55.816;37.036;2024-01-30T08:15:11;100697.16;;;3.10;69.69
72798;BME280;61084;55.816;37.036;2024-01-30T08:17:39;100698.88;;;3.15;69.86
72798;BME280;61084;55.816;37.036;2024-01-30T08:20:06;100695.41;;;3.15;69.80
72798;BME280;61084;55.816;37.036;2024-01-30T08:22:34;100692.81;;;3.12;69.56
72798;BME280;61084;55.816;37.036;2024-01-30T08:24:59;100695.44;;;3.13;69.60
72798;BME280;61084;55.816;37.036;2024-01-30T08:27:26;100692.81;;;3.15;69.25
72798;BME280;61084;55.816;37.036;2024-01-30T08:29:52;100696.25;;;3.14;69.10
72798;BME280;61084;55.816;37.036;2024-01-30T08:32:18;100692.81;;;3.12;69.21
72798;BME280;61084;55.816;37.036;2024-01-30T08:34:44;100698.00;;;3.12;69.17
72798;BME280;61084;55.816;37.036;2024-01-30T08:37:10;100693.69;;;3.11;69.21
72798;BME280;61084;55.816;37.036;2024-01-30T08:39:36;100681.56;;;3.14;69.50
72798;BME280;61084;55.816;37.036;2024-01-30T08:42:02;100685.88;;;3.18;69.62
72798;BME280;61084;55.816;37.036;2024-01-30T08:44:28;100679.81;;;3.21;69.15
72798;BME280;61084;55.816;37.036;2024-01-30T08:46:54;100685.84;;;3.24;69.55
72798;BME280;61084;55.816;37.036;2024-01-30T08:49:20;100688.47;;;3.26;69.64
72798;BME280;61084;55.816;37.036;2024-01-30T08:51:46;100696.25;;;3.30;69.31
72798;BME280;61084;55.816;37.036;2024-01-30T08:54:13;100690.16;;;3.36;69.05
72798;BME280;61084;55.816;37.036;2024-01-30T08:56:38;100683.25;;;3.35;69.41
72798;BME280;61084;55.816;37.036;2024-01-30T08:59:04;100679.78;;;3.31;69.55
72798;BME280;61084;55.816;37.036;2024-01-30T09:01:30;100689.28;;;3.35;69.48
72798;BME280;61084;55.816;37.036;2024-01-30T09:03:56;100691.00;;;3.38;69.45
72798;BME280;61084;55.816;37.036;2024-01-30T09:06:22;100700.56;;;3.34;69.39
72798;BME280;61084;55.816;37.036;2024-01-30T09:08:49;100694.50;;;3.32;69.15
72798;BME280;61084;55.816;37.036;2024-01-30T09:11:15;100697.97;;;3.33;69.43
72798;BME280;61084;55.816;37.036;2024-01-30T09:13:42;100690.19;;;3.33;69.03
72798;BME280;61084;55.816;37.036;2024-01-30T09:16:09;100685.84;;;3.32;69.25
72798;BME280;61084;55.816;37.036;2024-01-30T09:18:35;100692.78;;;3.34;69.11
72798;BME280;61084;55.816;37.036;2024-01-30T09:21:01;100685.00;;;3.33;69.31
72798;BME280;61084;55.816;37.036;2024-01-30T09:23:27;100691.91;;;3.31;69.03
72798;BME280;61084;55.816;37.036;2024-01-30T09:25:53;100691.03;;;3.32;69.08
72798;BME280;61084;55.816;37.036;2024-01-30T09:28:19;100682.38;;;3.36;68.98
72798;BME280;61084;55.816;37.036;2024-01-30T09:30:45;100676.34;;;3.37;68.83
72798;BME280;61084;55.816;37.036;2024-01-30T09:33:11;100682.41;;;3.33;69.24
72798;BME280;61084;55.816;37.036;2024-01-30T09:35:37;100683.28;;;3.30;69.31
72798;BME280;61084;55.816;37.036;2024-01-30T09:38:03;100693.66;;;3.27;69.22
72798;BME280;61084;55.816;37.036;2024-01-30T09:40:30;100683.28;;;3.27;69.09
72798;BME280;61084;55.816;37.036;2024-01-30T09:42:56;100682.41;;;3.25;68.89
72798;BME280;61084;55.816;37.036;2024-01-30T09:45:26;100684.13;;;3.29;68.95
72798;BME280;61084;55.816;37.036;2024-01-30T09:47:52;100685.84;;;3.32;69.57
72798;BME280;61084;55.816;37.036;2024-01-30T09:50:19;100684.97;;;3.34;69.38
72798;BME280;61084;55.816;37.036;2024-01-30T09:52:46;100694.50;;;3.37;69.49
72798;BME280;61084;55.816;37.036;2024-01-30T09:55:13;100698.81;;;3.32;69.06
72798;BME280;61084;55.816;37.036;2024-01-30T09:57:41;100701.41;;;3.32;68.91
72798;BME280;61084;55.816;37.036;2024-01-30T10:00:07;100698.81;;;3.35;69.44
72798;BME280;61084;55.816;37.036;2024-01-30T10:02:41;100685.81;;;3.38;69.00
72798;BME280;61084;55.816;37.036;2024-01-30T10:05:08;100685.81;;;3.41;69.02
72798;BME280;61084;55.816;37.036;2024-01-30T10:07:35;100693.59;;;3.42;68.76
72798;BME280;61084;55.816;37.036;2024-01-30T10:10:01;100689.28;;;3.43;69.14
72798;BME280;61084;55.816;37.036;2024-01-30T10:12:27;100682.38;;;3.40;68.67
72798;BME280;61084;55.816;37.036;2024-01-30T10:14:56;100681.50;;;3.41;69.13
72798;BME280;61084;55.816;37.036;2024-01-30T10:17:25;100678.88;;;3.47;68.90
72798;BME280;61084;55.816;37.036;2024-01-30T10:19:51;100671.09;;;3.52;69.30
72798;BME280;61084;55.816;37.036;2024-01-30T10:22:17;100658.94;;;3.58;68.88
72798;BME280;61084;55.816;37.036;2024-01-30T10:24:43;100664.09;;;3.64;68.88
72798;BME280;61084;55.816;37.036;2024-01-30T10:27:11;100652.81;;;3.70;69.11
72798;BME280;61084;55.816;37.036;2024-01-30T10:29:37;100652.81;;;3.71;68.88
72798;BME280;61084;55.816;37.036;2024-01-30T10:32:04;100653.66;;;3.72;68.65
72798;BME280;61084;55.816;37.036;2024-01-30T10:34:31;100664.94;;;3.66;68.46
72798;BME280;61084;55.816;37.036;2024-01-30T10:37:10;100671.88;;;3.67;68.45
72798;BME280;61084;55.816;37.036;2024-01-30T10:39:44;100672.75;;;3.63;68.47
72798;BME280;61084;55.816;37.036;2024-01-30T10:42:12;100677.94;;;3.62;68.42
72798;BME280;61084;55.816;37.036;2024-01-30T10:45:08;100681.44;;;3.61;68.45
72798;BME280;61084;55.816;37.036;2024-01-30T10:47:35;100680.53;;;3.59;68.62
72798;BME280;61084;55.816;37.036;2024-01-30T10:50:05;100677.09;;;3.58;68.74
72798;BME280;61084;55.816;37.036;2024-01-30T10:52:32;100670.16;;;3.63;69.13
72798;BME280;61084;55.816;37.036;2024-01-30T10:54:59;100673.59;;;3.68;68.52
72798;BME280;61084;55.816;37.036;2024-01-30T10:57:26;100671.00;;;3.68;68.41
72798;BME280;61084;55.816;37.036;2024-01-30T10:59:58;100670.97;;;3.74;68.37
72798;BME280;61084;55.816;37.036;2024-01-30T11:02:25;100668.34;;;3.77;68.94
72798;BME280;61084;55.816;37.036;2024-01-30T11:04:57;100671.81;;;3.75;68.21
72798;BME280;61084;55.816;37.036;2024-01-30T11:07:28;100662.34;;;3.69;68.59
72798;BME280;61084;55.816;37.036;2024-01-30T11:12:25;100657.13;;;3.68;68.78
72798;BME280;61084;55.816;37.036;2024-01-30T11:15:07;100665.78;;;3.73;68.39
72798;BME280;61084;55.816;37.036;2024-01-30T11:20:09;100662.34;;;3.71;68.54
72798;BME280;61084;55.816;37.036;2024-01-30T11:22:36;100658.00;;;3.70;68.37
72798;BME280;61084;55.816;37.036;2024-01-30T11:25:01;100661.44;;;3.72;68.21
72798;BME280;61084;55.816;37.036;2024-01-30T11:27:30;100662.31;;;3.74;68.48
72798;BME280;61084;55.816;37.036;2024-01-30T11:30:03;100669.22;;;3.75;68.58
72798;BME280;61084;55.816;37.036;2024-01-30T11:32:31;100670.97;;;3.73;68.24
72798;BME280;61084;55.816;37.036;2024-01-30T11:34:57;100676.19;;;3.67;68.22
72798;BME280;61084;55.816;37.036;2024-01-30T11:37:25;100675.31;;;3.68;68.14
72798;BME280;61084;55.816;37.036;2024-01-30T11:39:53;100681.34;;;3.73;68.42
72798;BME280;61084;55.816;37.036;2024-01-30T11:42:19;100689.16;;;3.76;68.26
72798;BME280;61084;55.816;37.036;2024-01-30T11:44:47;100694.34;;;3.76;68.13
72798;BME280;61084;55.816;37.036;2024-01-30T11:47:14;100694.34;;;3.73;68.93
72798;BME280;61084;55.816;37.036;2024-01-30T11:49:40;100702.13;;;3.76;68.17
72798;BME280;61084;55.816;37.036;2024-01-30T11:52:07;100690.88;;;3.74;68.58
72798;BME280;61084;55.816;37.036;2024-01-30T11:54:33;100705.56;;;3.76;68.18
72798;BME280;61084;55.816;37.036;2024-01-30T11:57:00;100702.97;;;3.75;68.24
72798;BME280;61084;55.816;37.036;2024-01-30T11:59:26;100703.88;;;3.74;68.56
72798;BME280;61084;55.816;37.036;2024-01-30T12:01:52;100703.88;;;3.74;68.52
72798;BME280;61084;55.816;37.036;2024-01-30T12:04:18;100703.03;;;3.69;68.27
72798;BME280;61084;55.816;37.036;2024-01-30T12:06:44;100709.94;;;3.64;68.12
72798;BME280;61084;55.816;37.036;2024-01-30T12:09:10;100702.19;;;3.58;68.22
72798;BME280;61084;55.816;37.036;2024-01-30T12:11:45;100714.28;;;3.62;68.31
72798;BME280;61084;55.816;37.036;2024-01-30T12:14:12;100716.00;;;3.64;68.44
72798;BME280;61084;55.816;37.036;2024-01-30T12:16:38;100716.00;;;3.67;68.20
72798;BME280;61084;55.816;37.036;2024-01-30T12:19:04;100716.00;;;3.69;68.27
72798;BME280;61084;55.816;37.036;2024-01-30T12:21:30;100722.91;;;3.68;68.34
72798;BME280;61084;55.816;37.036;2024-01-30T12:23:57;100724.66;;;3.65;68.54
72798;BME280;61084;55.816;37.036;2024-01-30T12:26:24;100724.66;;;3.63;68.28
72798;BME280;61084;55.816;37.036;2024-01-30T12:28:56;100726.41;;;3.63;68.72
72798;BME280;61084;55.816;37.036;2024-01-30T12:31:32;100720.34;;;3.62;68.47
72798;BME280;61084;55.816;37.036;2024-01-30T12:33:59;100716.88;;;3.62;68.83
72798;BME280;61084;55.816;37.036;2024-01-30T12:36:26;100717.78;;;3.61;68.65
72798;BME280;61084;55.816;37.036;2024-01-30T12:38:52;100721.22;;;3.63;68.39
72798;BME280;61084;55.816;37.036;2024-01-30T12:41:19;100719.47;;;3.66;68.58
72798;BME280;61084;55.816;37.036;2024-01-30T12:43:45;100714.25;;;3.68;68.66
72798;BME280;61084;55.816;37.036;2024-01-30T12:46:13;100720.31;;;3.68;68.30
72798;BME280;61084;55.816;37.036;2024-01-30T12:48:39;100720.34;;;3.62;68.38
72798;BME280;61084;55.816;37.036;2024-01-30T12:51:05;100718.63;;;3.60;68.26
72798;BME280;61084;55.816;37.036;2024-01-30T12:53:31;100723.81;;;3.61;68.85